Pascanas, Argentina
Current Conditions -  °F | °C
As of 1:00 AM on Sunday 26 Oct 2014 (Local Time) from SAOC Reporting Station
Clear Clear  
Wind Chill: 79°   Ceiling: Unl
Heat Index: 79°   Visibility: 6mi
Dew Point: 50°   Wind: 18mph
Humidity: 36%   Direction: 340°NNW
Pressure: 29.8"   Gusts: NA
Location:  33.13°S, 63.05°W
Report Text: SAOC 260400Z 34016KT CAVOK 26/10 Q1009
Loading
Personal Weather Stations






























Interactive Weather Map New forecast layout! Learn more

10-Day Weather Forecast

Advertisements
Track Severe Weather on mobile